AKST,Max TemperatureF,Mean TemperatureF,Min TemperatureF,Max Dew PointF,MeanDew PointF,Min DewpointF,Max Humidity, Mean Humidity, Min Humidity, Max Sea Level PressureIn, Mean Sea Level PressureIn, Min Sea Level PressureIn, Max VisibilityMiles, Mean VisibilityMiles, Min VisibilityMiles, Max Wind SpeedMPH, Mean Wind SpeedMPH, Max Gust SpeedMPH,PrecipitationIn, CloudCover, Events, WindDirDegrees
2013-11-1,44,40,35,45,36,34,100,86,71,30.14,30.02,29.65,10,9,2,21,7,28,0.00,4,,177
2013-11-2,48,46,44,48,45,43,100,94,87,29.62,29.52,29.43,10,7,2,33,24,44,0.00,8,,192
2013-11-3,46,44,42,45,43,43,100,93,87,29.60,29.46,29.32,10,8,2,28,14,33,0.00,8,,174
2013-11-4,46,42,39,45,40,36,93,87,81,29.96,29.47,29.30,10,10,7,24,13,33,0.00,6,,276
2013-11-5,44,40,35,37,35,30,100,82,70,30.25,30.17,29.97,10,10,10,26,14,31,0.00,4,,316
2013-11-6,46,42,39,46,41,36,100,90,76,30.17,29.80,29.60,10,8,2,40,20,48,0.00,7,,176
2013-11-7,44,40,37,41,37,34,100,85,70,30.17,29.90,29.60,10,9,3,24,15,33,0.00,6,,272
2013-11-8,48,46,44,45,43,39,93,87,81,30.40,30.32,30.17,10,10,10,14,6,18,0.00,6,,258
2013-11-9,48,46,44,46,44,39,100,89,76,30.40,30.30,30.10,10,9,4,30,10,39,0.00,5,,213
2013-11-10,48,42,35,46,37,28,100,86,57,30.27,30.10,29.92,10,9,2,29,18,39,0.00,6,,288
2013-11-11,37,35,33,34,30,27,100,81,70,30.41,30.36,30.27,10,10,3,36,18,41,0.00,6,,331
2013-11-12,48,42,35,46,37,27,100,85,70,30.41,30.31,30.23,10,9,4,29,12,32,0.00,6,,312
2013-11-13,53,48,44,48,46,43,100,94,82,30.52,30.44,30.33,10,10,10,15,8,18,0.00,3,,334
2013-11-14,53,48,42,50,46,41,100,89,67,30.48,30.39,30.31,10,10,9,13,3,17,0.00,4,,213
2013-11-15,53,50,46,50,46,43,94,86,72,30.33,30.31,30.28,10,10,10,22,12,31,0.00,6,,307
2013-11-16,44,40,35,43,31,23,93,73,52,30.48,30.43,30.33,10,10,10,22,14,28,0.00,4,,346
2013-11-17,37,34,32,28,25,21,81,68,56,30.48,30.41,30.37,10,10,10,21,11,25,0.00,1,,352
2013-11-18,33,30,26,25,21,19,80,69,60,30.38,30.34,30.27,10,10,10,14,9,17,0.00,4,,354
2013-11-19,37,34,30,37,29,25,100,86,75,30.27,30.13,29.85,10,10,8,9,4,,0.00,7,,21
2013-11-20,39,37,35,37,36,34,100,96,87,29.84,29.59,29.49,10,10,7,14,10,21,0.00,8,,27
2013-11-21,37,32,26,34,29,19,93,85,74,29.48,29.33,29.23,10,10,10,37,18,41,0.00,7,,336
2013-11-22,35,30,26,28,25,18,93,79,65,29.64,29.51,29.43,10,10,2,23,14,30,0.00,4,,266
2013-11-23,42,38,35,43,29,21,100,78,56,29.77,29.68,29.49,10,9,4,21,10,31,0.00,5,,331
2013-11-24,44,43,42,45,44,41,100,99,93,29.52,29.47,29.44,10,6,2,13,5,,0.00,8,,143
2013-11-25,42,38,35,43,39,34,100,96,87,29.81,29.62,29.52,10,8,2,18,6,,0.00,8,,352
2013-11-26,39,37,35,36,34,32,93,86,81,30.09,29.98,29.81,10,10,10,20,13,23,0.00,5,,318
2013-11-27,41,37,33,36,33,30,100,87,75,30.09,30.02,29.94,10,10,10,16,6,20,0.00,2,,2
2013-11-28,35,32,28,34,22,14,93,67,44,30.22,30.04,29.92,10,10,10,21,15,26,0.00,0,,353
2013-11-29,37,34,30,34,27,18,93,74,60,30.28,30.25,30.22,10,10,10,22,15,28,0.00,2,,344
2013-11-30,35,32,30,27,24,18,80,67,52,30.43,30.39,30.36,10,10,10,21,13,29,0.00,0,,359